sensor_id;sensor_type;location;lat;lon;timestamp;P1;durP1;ratioP1;P2;durP2;ratioP2
3433;SDS011;1730;41.932;25.548;2023-08-17T00:01:42;10.83;;;6.70;;
3433;SDS011;1730;41.932;25.548;2023-08-17T00:04:08;6.67;;;6.10;;
3433;SDS011;1730;41.932;25.548;2023-08-17T00:06:34;7.00;;;6.30;;
3433;SDS011;1730;41.932;25.548;2023-08-17T00:08:59;10.33;;;6.00;;
3433;SDS011;1730;41.932;25.548;2023-08-17T00:11:25;9.97;;;6.70;;
3433;SDS011;1730;41.932;25.548;2023-08-17T00:13:50;7.73;;;6.97;;
3433;SDS011;1730;41.932;25.548;2023-08-17T00:16:16;8.30;;;6.50;;
3433;SDS011;1730;41.932;25.548;2023-08-17T00:18:42;12.77;;;6.60;;
3433;SDS011;1730;41.932;25.548;2023-08-17T00:21:08;14.17;;;6.50;;
3433;SDS011;1730;41.932;25.548;2023-08-17T00:23:33;9.83;;;7.43;;
3433;SDS011;1730;41.932;25.548;2023-08-17T00:25:59;11.57;;;7.00;;
3433;SDS011;1730;41.932;25.548;2023-08-17T00:28:25;10.33;;;6.80;;
3433;SDS011;1730;41.932;25.548;2023-08-17T00:30:51;7.50;;;6.77;;
3433;SDS011;1730;41.932;25.548;2023-08-17T00:33:16;9.13;;;6.17;;
3433;SDS011;1730;41.932;25.548;2023-08-17T00:35:42;8.27;;;6.17;;
3433;SDS011;1730;41.932;25.548;2023-08-17T00:38:08;10.67;;;6.90;;
3433;SDS011;1730;41.932;25.548;2023-08-17T00:40:33;18.70;;;7.27;;
3433;SDS011;1730;41.932;25.548;2023-08-17T00:42:59;15.63;;;6.23;;
3433;SDS011;1730;41.932;25.548;2023-08-17T00:45:25;12.83;;;6.93;;
3433;SDS011;1730;41.932;25.548;2023-08-17T00:47:53;9.93;;;6.87;;
3433;SDS011;1730;41.932;25.548;2023-08-17T00:50:21;10.97;;;5.80;;
3433;SDS011;1730;41.932;25.548;2023-08-17T00:52:47;6.87;;;6.10;;
3433;SDS011;1730;41.932;25.548;2023-08-17T00:55:13;7.00;;;6.30;;
3433;SDS011;1730;41.932;25.548;2023-08-17T00:57:39;11.47;;;6.37;;
3433;SDS011;1730;41.932;25.548;2023-08-17T01:00:07;8.13;;;6.83;;
3433;SDS011;1730;41.932;25.548;2023-08-17T01:02:34;11.47;;;6.07;;
3433;SDS011;1730;41.932;25.548;2023-08-17T01:05:00;7.17;;;6.57;;
3433;SDS011;1730;41.932;25.548;2023-08-17T01:07:26;9.43;;;5.97;;
3433;SDS011;1730;41.932;25.548;2023-08-17T01:09:51;9.80;;;6.30;;
3433;SDS011;1730;41.932;25.548;2023-08-17T01:12:19;7.07;;;6.03;;
3433;SDS011;1730;41.932;25.548;2023-08-17T01:15:00;9.50;;;6.80;;
3433;SDS011;1730;41.932;25.548;2023-08-17T01:17:44;6.87;;;6.20;;
3433;SDS011;1730;41.932;25.548;2023-08-17T01:20:16;6.77;;;6.10;;
3433;SDS011;1730;41.932;25.548;2023-08-17T01:22:44;7.13;;;6.47;;
3433;SDS011;1730;41.932;25.548;2023-08-17T01:25:12;7.30;;;6.57;;
3433;SDS011;1730;41.932;25.548;2023-08-17T01:27:40;11.10;;;6.60;;
3433;SDS011;1730;41.932;25.548;2023-08-17T01:30:07;10.37;;;6.37;;
3433;SDS011;1730;41.932;25.548;2023-08-17T01:32:58;7.57;;;6.87;;
3433;SDS011;1730;41.932;25.548;2023-08-17T01:38:37;7.27;;;6.53;;
3433;SDS011;1730;41.932;25.548;2023-08-17T01:41:05;7.30;;;5.90;;
3433;SDS011;1730;41.932;25.548;2023-08-17T01:43:39;6.63;;;5.97;;
3433;SDS011;1730;41.932;25.548;2023-08-17T01:46:12;8.33;;;6.43;;
3433;SDS011;1730;41.932;25.548;2023-08-17T01:48:44;9.43;;;5.87;;
3433;SDS011;1730;41.932;25.548;2023-08-17T01:51:16;8.40;;;6.90;;
3433;SDS011;1730;41.932;25.548;2023-08-17T01:53:44;15.20;;;6.20;;
3433;SDS011;1730;41.932;25.548;2023-08-17T01:56:10;16.50;;;6.37;;
3433;SDS011;1730;41.932;25.548;2023-08-17T01:58:36;8.07;;;5.80;;
3433;SDS011;1730;41.932;25.548;2023-08-17T02:01:02;8.50;;;6.60;;
3433;SDS011;1730;41.932;25.548;2023-08-17T02:03:27;6.77;;;6.07;;
3433;SDS011;1730;41.932;25.548;2023-08-17T02:05:57;9.47;;;5.63;;
3433;SDS011;1730;41.932;25.548;2023-08-17T02:08:22;7.50;;;5.33;;
3433;SDS011;1730;41.932;25.548;2023-08-17T02:10:48;8.20;;;6.10;;
3433;SDS011;1730;41.932;25.548;2023-08-17T02:13:14;18.20;;;5.47;;
3433;SDS011;1730;41.932;25.548;2023-08-17T02:15:40;8.67;;;5.67;;
3433;SDS011;1730;41.932;25.548;2023-08-17T02:18:06;7.87;;;5.37;;
3433;SDS011;1730;41.932;25.548;2023-08-17T02:20:32;6.13;;;5.17;;
3433;SDS011;1730;41.932;25.548;2023-08-17T02:22:57;11.27;;;5.73;;
3433;SDS011;1730;41.932;25.548;2023-08-17T02:25:23;10.47;;;5.70;;
3433;SDS011;1730;41.932;25.548;2023-08-17T02:27:49;8.60;;;5.60;;
3433;SDS011;1730;41.932;25.548;2023-08-17T02:30:14;8.40;;;5.37;;
3433;SDS011;1730;41.932;25.548;2023-08-17T02:32:40;6.77;;;4.27;;
3433;SDS011;1730;41.932;25.548;2023-08-17T02:35:06;6.50;;;4.90;;
3433;SDS011;1730;41.932;25.548;2023-08-17T02:37:31;5.37;;;4.80;;
3433;SDS011;1730;41.932;25.548;2023-08-17T02:39:57;9.43;;;5.10;;
3433;SDS011;1730;41.932;25.548;2023-08-17T02:42:23;10.73;;;5.07;;
3433;SDS011;1730;41.932;25.548;2023-08-17T02:44:48;6.00;;;5.40;;
3433;SDS011;1730;41.932;25.548;2023-08-17T02:47:14;5.40;;;4.73;;
3433;SDS011;1730;41.932;25.548;2023-08-17T02:49:41;8.33;;;4.77;;
3433;SDS011;1730;41.932;25.548;2023-08-17T02:52:06;6.93;;;4.93;;
3433;SDS011;1730;41.932;25.548;2023-08-17T02:54:33;5.97;;;4.40;;
3433;SDS011;1730;41.932;25.548;2023-08-17T02:56:59;7.30;;;4.40;;
3433;SDS011;1730;41.932;25.548;2023-08-17T02:59:25;12.90;;;5.57;;
3433;SDS011;1730;41.932;25.548;2023-08-17T03:01:50;7.50;;;5.33;;
3433;SDS011;1730;41.932;25.548;2023-08-17T03:04:16;7.00;;;4.97;;
3433;SDS011;1730;41.932;25.548;2023-08-17T03:06:41;7.10;;;4.97;;
3433;SDS011;1730;41.932;25.548;2023-08-17T03:09:07;5.57;;;5.03;;
3433;SDS011;1730;41.932;25.548;2023-08-17T03:11:33;6.13;;;4.47;;
3433;SDS011;1730;41.932;25.548;2023-08-17T03:13:58;8.90;;;4.50;;
3433;SDS011;1730;41.932;25.548;2023-08-17T03:16:27;7.80;;;5.10;;
3433;SDS011;1730;41.932;25.548;2023-08-17T03:18:52;9.00;;;4.93;;
3433;SDS011;1730;41.932;25.548;2023-08-17T03:21:18;6.23;;;5.13;;
3433;SDS011;1730;41.932;25.548;2023-08-17T03:23:45;4.83;;;4.43;;
3433;SDS011;1730;41.932;25.548;2023-08-17T03:26:10;5.70;;;5.20;;
3433;SDS011;1730;41.932;25.548;2023-08-17T03:28:36;12.53;;;5.60;;
3433;SDS011;1730;41.932;25.548;2023-08-17T03:31:02;5.43;;;4.90;;
3433;SDS011;1730;41.932;25.548;2023-08-17T03:33:28;7.07;;;5.17;;
3433;SDS011;1730;41.932;25.548;2023-08-17T03:35:54;10.77;;;5.23;;
3433;SDS011;1730;41.932;25.548;2023-08-17T03:38:19;11.40;;;5.83;;
3433;SDS011;1730;41.932;25.548;2023-08-17T03:40:46;6.70;;;5.50;;
3433;SDS011;1730;41.932;25.548;2023-08-17T03:43:13;6.20;;;5.60;;
3433;SDS011;1730;41.932;25.548;2023-08-17T03:45:40;17.97;;;7.13;;
3433;SDS011;1730;41.932;25.548;2023-08-17T03:48:06;8.73;;;6.00;;
3433;SDS011;1730;41.932;25.548;2023-08-17T03:50:32;7.50;;;5.70;;
3433;SDS011;1730;41.932;25.548;2023-08-17T03:52:59;6.70;;;5.73;;
3433;SDS011;1730;41.932;25.548;2023-08-17T03:55:24;10.77;;;5.60;;
3433;SDS011;1730;41.932;25.548;2023-08-17T03:57:50;6.30;;;5.77;;
3433;SDS011;1730;41.932;25.548;2023-08-17T04:00:16;6.13;;;5.53;;
3433;SDS011;1730;41.932;25.548;2023-08-17T04:02:42;6.50;;;5.20;;
3433;SDS011;1730;41.932;25.548;2023-08-17T04:05:08;7.40;;;6.10;;
3433;SDS011;1730;41.932;25.548;2023-08-17T04:07:34;5.40;;;5.10;;
3433;SDS011;1730;41.932;25.548;2023-08-17T04:10:01;5.33;;;4.90;;
3433;SDS011;1730;41.932;25.548;2023-08-17T04:12:26;5.80;;;5.30;;
3433;SDS011;1730;41.932;25.548;2023-08-17T04:14:52;7.20;;;6.20;;
3433;SDS011;1730;41.932;25.548;2023-08-17T04:17:17;5.97;;;5.37;;
3433;SDS011;1730;41.932;25.548;2023-08-17T04:19:43;13.87;;;5.40;;
3433;SDS011;1730;41.932;25.548;2023-08-17T04:22:08;6.43;;;5.07;;
3433;SDS011;1730;41.932;25.548;2023-08-17T04:24:35;8.97;;;4.97;;
3433;SDS011;1730;41.932;25.548;2023-08-17T04:27:00;10.80;;;4.47;;
3433;SDS011;1730;41.932;25.548;2023-08-17T04:29:26;4.73;;;4.30;;
3433;SDS011;1730;41.932;25.548;2023-08-17T04:31:51;5.10;;;4.60;;
3433;SDS011;1730;41.932;25.548;2023-08-17T04:34:16;14.03;;;4.73;;
3433;SDS011;1730;41.932;25.548;2023-08-17T04:36:42;6.33;;;3.63;;
3433;SDS011;1730;41.932;25.548;2023-08-17T04:39:08;5.27;;;3.77;;
3433;SDS011;1730;41.932;25.548;2023-08-17T04:41:34;5.30;;;4.50;;
3433;SDS011;1730;41.932;25.548;2023-08-17T04:44:00;9.33;;;4.70;;
3433;SDS011;1730;41.932;25.548;2023-08-17T04:46:26;7.07;;;4.20;;
3433;SDS011;1730;41.932;25.548;2023-08-17T04:48:51;6.37;;;3.70;;
3433;SDS011;1730;41.932;25.548;2023-08-17T04:51:18;3.90;;;3.60;;
3433;SDS011;1730;41.932;25.548;2023-08-17T04:53:43;4.80;;;4.50;;
3433;SDS011;1730;41.932;25.548;2023-08-17T04:56:10;17.00;;;4.10;;
3433;SDS011;1730;41.932;25.548;2023-08-17T04:58:35;6.83;;;3.93;;
3433;SDS011;1730;41.932;25.548;2023-08-17T05:01:01;4.87;;;4.37;;
3433;SDS011;1730;41.932;25.548;2023-08-17T05:03:26;4.73;;;3.73;;
3433;SDS011;1730;41.932;25.548;2023-08-17T05:05:52;4.00;;;3.50;;
3433;SDS011;1730;41.932;25.548;2023-08-17T05:08:18;4.03;;;3.67;;
3433;SDS011;1730;41.932;25.548;2023-08-17T05:10:44;5.43;;;4.03;;
3433;SDS011;1730;41.932;25.548;2023-08-17T05:13:09;9.77;;;3.77;;
3433;SDS011;1730;41.932;25.548;2023-08-17T05:15:34;5.90;;;4.20;;
3433;SDS011;1730;41.932;25.548;2023-08-17T05:18:00;12.10;;;4.17;;
3433;SDS011;1730;41.932;25.548;2023-08-17T05:20:25;8.53;;;3.40;;
3433;SDS011;1730;41.932;25.548;2023-08-17T05:22:51;6.50;;;4.20;;
3433;SDS011;1730;41.932;25.548;2023-08-17T05:25:16;6.77;;;4.73;;
3433;SDS011;1730;41.932;25.548;2023-08-17T05:27:42;8.77;;;4.23;;
3433;SDS011;1730;41.932;25.548;2023-08-17T05:30:07;5.00;;;4.00;;
3433;SDS011;1730;41.932;25.548;2023-08-17T05:32:33;6.53;;;4.13;;
3433;SDS011;1730;41.932;25.548;2023-08-17T05:34:59;4.70;;;3.57;;
3433;SDS011;1730;41.932;25.548;2023-08-17T05:37:24;6.73;;;3.60;;
3433;SDS011;1730;41.932;25.548;2023-08-17T05:39:50;4.33;;;3.40;;
3433;SDS011;1730;41.932;25.548;2023-08-17T05:42:15;5.23;;;4.03;;
3433;SDS011;1730;41.932;25.548;2023-08-17T05:44:41;5.20;;;3.30;;
3433;SDS011;1730;41.932;25.548;2023-08-17T05:47:06;3.60;;;3.37;;
3433;SDS011;1730;41.932;25.548;2023-08-17T05:49:32;10.53;;;3.67;;
3433;SDS011;1730;41.932;25.548;2023-08-17T05:51:57;6.70;;;3.60;;
3433;SDS011;1730;41.932;25.548;2023-08-17T05:54:24;5.70;;;3.67;;
3433;SDS011;1730;41.932;25.548;2023-08-17T05:56:50;5.10;;;3.50;;
3433;SDS011;1730;41.932;25.548;2023-08-17T05:59:15;4.30;;;3.80;;
3433;SDS011;1730;41.932;25.548;2023-08-17T06:01:40;6.77;;;4.03;;
3433;SDS011;1730;41.932;25.548;2023-08-17T06:04:06;5.73;;;3.50;;
3433;SDS011;1730;41.932;25.548;2023-08-17T06:06:33;5.13;;;3.63;;
3433;SDS011;1730;41.932;25.548;2023-08-17T06:08:59;6.10;;;3.90;;
3433;SDS011;1730;41.932;25.548;2023-08-17T06:11:25;12.20;;;3.90;;
3433;SDS011;1730;41.932;25.548;2023-08-17T06:13:50;7.37;;;4.23;;
3433;SDS011;1730;41.932;25.548;2023-08-17T06:16:16;4.50;;;3.67;;
3433;SDS011;1730;41.932;25.548;2023-08-17T06:18:41;5.70;;;3.80;;
3433;SDS011;1730;41.932;25.548;2023-08-17T06:21:07;7.30;;;3.50;;
3433;SDS011;1730;41.932;25.548;2023-08-17T06:23:33;3.70;;;3.40;;
3433;SDS011;1730;41.932;25.548;2023-08-17T06:25:59;8.00;;;3.43;;
3433;SDS011;1730;41.932;25.548;2023-08-17T06:28:25;3.70;;;3.50;;
3433;SDS011;1730;41.932;25.548;2023-08-17T06:30:52;5.93;;;4.00;;
3433;SDS011;1730;41.932;25.548;2023-08-17T06:33:18;10.13;;;3.53;;
3433;SDS011;1730;41.932;25.548;2023-08-17T06:35:44;4.03;;;3.60;;
3433;SDS011;1730;41.932;25.548;2023-08-17T06:38:10;5.67;;;3.40;;
3433;SDS011;1730;41.932;25.548;2023-08-17T06:40:35;4.80;;;3.67;;
3433;SDS011;1730;41.932;25.548;2023-08-17T06:43:00;4.07;;;3.77;;
3433;SDS011;1730;41.932;25.548;2023-08-17T06:45:26;4.50;;;3.70;;
3433;SDS011;1730;41.932;25.548;2023-08-17T06:47:52;5.30;;;3.60;;
3433;SDS011;1730;41.932;25.548;2023-08-17T06:50:19;8.27;;;3.97;;
3433;SDS011;1730;41.932;25.548;2023-08-17T06:52:44;5.30;;;3.60;;
3433;SDS011;1730;41.932;25.548;2023-08-17T06:55:10;3.90;;;3.60;;
3433;SDS011;1730;41.932;25.548;2023-08-17T06:57:35;8.30;;;3.43;;
3433;SDS011;1730;41.932;25.548;2023-08-17T07:00:01;6.60;;;3.60;;
3433;SDS011;1730;41.932;25.548;2023-08-17T07:02:30;4.03;;;3.63;;
3433;SDS011;1730;41.932;25.548;2023-08-17T07:04:56;4.10;;;3.40;;
3433;SDS011;1730;41.932;25.548;2023-08-17T07:07:21;5.70;;;3.60;;
3433;SDS011;1730;41.932;25.548;2023-08-17T07:09:47;5.77;;;3.77;;
3433;SDS011;1730;41.932;25.548;2023-08-17T07:12:12;4.40;;;4.10;;
3433;SDS011;1730;41.932;25.548;2023-08-17T07:14:38;7.03;;;4.07;;
3433;SDS011;1730;41.932;25.548;2023-08-17T07:17:04;3.63;;;3.33;;
3433;SDS011;1730;41.932;25.548;2023-08-17T07:19:30;3.13;;;2.93;;
3433;SDS011;1730;41.932;25.548;2023-08-17T07:21:55;3.47;;;3.17;;
3433;SDS011;1730;41.932;25.548;2023-08-17T07:24:20;4.20;;;3.90;;
3433;SDS011;1730;41.932;25.548;2023-08-17T07:26:46;4.70;;;3.13;;
3433;SDS011;1730;41.932;25.548;2023-08-17T07:29:12;9.57;;;3.83;;
3433;SDS011;1730;41.932;25.548;2023-08-17T07:31:38;4.90;;;3.20;;
3433;SDS011;1730;41.932;25.548;2023-08-17T07:34:04;6.03;;;3.50;;
3433;SDS011;1730;41.932;25.548;2023-08-17T07:36:31;5.47;;;3.43;;
3433;SDS011;1730;41.932;25.548;2023-08-17T07:38:57;9.57;;;3.60;;
3433;SDS011;1730;41.932;25.548;2023-08-17T07:41:23;9.83;;;3.83;;
3433;SDS011;1730;41.932;25.548;2023-08-17T07:43:48;3.87;;;3.47;;
3433;SDS011;1730;41.932;25.548;2023-08-17T07:46:14;6.60;;;4.17;;
3433;SDS011;1730;41.932;25.548;2023-08-17T07:48:39;3.37;;;3.07;;
3433;SDS011;1730;41.932;25.548;2023-08-17T07:51:05;3.87;;;3.53;;
3433;SDS011;1730;41.932;25.548;2023-08-17T07:53:30;4.47;;;3.73;;
3433;SDS011;1730;41.932;25.548;2023-08-17T07:55:56;4.13;;;3.20;;
3433;SDS011;1730;41.932;25.548;2023-08-17T07:58:21;11.20;;;8.00;;
3433;SDS011;1730;41.932;25.548;2023-08-17T08:00:47;5.10;;;3.60;;
3433;SDS011;1730;41.932;25.548;2023-08-17T08:03:13;4.37;;;4.00;;
3433;SDS011;1730;41.932;25.548;2023-08-17T08:05:39;4.70;;;3.70;;
3433;SDS011;1730;41.932;25.548;2023-08-17T08:08:05;3.67;;;3.33;;
3433;SDS011;1730;41.932;25.548;2023-08-17T08:10:30;4.10;;;3.67;;
3433;SDS011;1730;41.932;25.548;2023-08-17T08:12:56;4.30;;;3.60;;
3433;SDS011;1730;41.932;25.548;2023-08-17T08:15:21;4.53;;;3.73;;
3433;SDS011;1730;41.932;25.548;2023-08-17T08:17:47;4.63;;;4.20;;
3433;SDS011;1730;41.932;25.548;2023-08-17T08:20:12;10.73;;;4.00;;
3433;SDS011;1730;41.932;25.548;2023-08-17T08:22:38;11.20;;;3.20;;
3433;SDS011;1730;41.932;25.548;2023-08-17T08:25:04;4.47;;;3.40;;
3433;SDS011;1730;41.932;25.548;2023-08-17T08:27:29;4.80;;;3.20;;
3433;SDS011;1730;41.932;25.548;2023-08-17T08:29:55;4.63;;;3.50;;
3433;SDS011;1730;41.932;25.548;2023-08-17T08:32:20;3.37;;;3.17;;
3433;SDS011;1730;41.932;25.548;2023-08-17T08:34:46;4.87;;;3.37;;
3433;SDS011;1730;41.932;25.548;2023-08-17T08:37:11;3.37;;;2.90;;
3433;SDS011;1730;41.932;25.548;2023-08-17T08:39:50;4.17;;;3.60;;
3433;SDS011;1730;41.932;25.548;2023-08-17T08:42:20;6.33;;;3.10;;
3433;SDS011;1730;41.932;25.548;2023-08-17T08:44:46;5.23;;;3.30;;
3433;SDS011;1730;41.932;25.548;2023-08-17T08:47:12;5.73;;;2.80;;
3433;SDS011;1730;41.932;25.548;2023-08-17T08:49:39;11.03;;;3.40;;
3433;SDS011;1730;41.932;25.548;2023-08-17T08:52:08;3.23;;;3.00;;
3433;SDS011;1730;41.932;25.548;2023-08-17T08:54:38;6.40;;;3.23;;
3433;SDS011;1730;41.932;25.548;2023-08-17T08:57:08;3.83;;;3.27;;
3433;SDS011;1730;41.932;25.548;2023-08-17T08:59:38;4.90;;;3.13;;
3433;SDS011;1730;41.932;25.548;2023-08-17T09:02:10;9.87;;;2.70;;
3433;SDS011;1730;41.932;25.548;2023-08-17T09:04:39;2.77;;;2.57;;
3433;SDS011;1730;41.932;25.548;2023-08-17T09:07:04;2.90;;;2.70;;
3433;SDS011;1730;41.932;25.548;2023-08-17T09:09:31;3.33;;;2.80;;
3433;SDS011;1730;41.932;25.548;2023-08-17T09:11:57;6.13;;;3.20;;
3433;SDS011;1730;41.932;25.548;2023-08-17T09:14:22;2.60;;;2.40;;
3433;SDS011;1730;41.932;25.548;2023-08-17T09:16:48;4.37;;;2.80;;
3433;SDS011;1730;41.932;25.548;2023-08-17T09:19:13;2.80;;;2.60;;
3433;SDS011;1730;41.932;25.548;2023-08-17T09:21:40;7.67;;;3.00;;
3433;SDS011;1730;41.932;25.548;2023-08-17T09:24:06;4.43;;;2.60;;
3433;SDS011;1730;41.932;25.548;2023-08-17T09:26:32;3.07;;;2.87;;
3433;SDS011;1730;41.932;25.548;2023-08-17T09:28:59;11.10;;;2.77;;
3433;SDS011;1730;41.932;25.548;2023-08-17T09:31:24;3.00;;;2.30;;
3433;SDS011;1730;41.932;25.548;2023-08-17T09:33:50;7.50;;;2.67;;
3433;SDS011;1730;41.932;25.548;2023-08-17T09:36:26;2.90;;;2.70;;
3433;SDS011;1730;41.932;25.548;2023-08-17T09:38:55;2.70;;;2.50;;
3433;SDS011;1730;41.932;25.548;2023-08-17T09:41:22;4.93;;;2.40;;
3433;SDS011;1730;41.932;25.548;2023-08-17T09:43:48;3.70;;;2.60;;
3433;SDS011;1730;41.932;25.548;2023-08-17T09:46:14;2.70;;;2.50;;
3433;SDS011;1730;41.932;25.548;2023-08-17T09:48:39;3.67;;;2.60;;
3433;SDS011;1730;41.932;25.548;2023-08-17T09:51:09;3.57;;;2.97;;
3433;SDS011;1730;41.932;25.548;2023-08-17T09:53:35;4.33;;;2.50;;
3433;SDS011;1730;41.932;25.548;2023-08-17T09:56:04;3.90;;;2.60;;
3433;SDS011;1730;41.932;25.548;2023-08-17T09:58:32;3.43;;;2.90;;
3433;SDS011;1730;41.932;25.548;2023-08-17T10:00:58;2.80;;;2.47;;
3433;SDS011;1730;41.932;25.548;2023-08-17T10:03:28;5.97;;;3.10;;
3433;SDS011;1730;41.932;25.548;2023-08-17T10:06:06;3.27;;;2.97;;
3433;SDS011;1730;41.932;25.548;2023-08-17T10:08:39;4.90;;;2.53;;
3433;SDS011;1730;41.932;25.548;2023-08-17T10:11:10;10.00;;;3.13;;
3433;SDS011;1730;41.932;25.548;2023-08-17T10:16:44;9.93;;;3.13;;
3433;SDS011;1730;41.932;25.548;2023-08-17T10:19:17;3.40;;;3.10;;
3433;SDS011;1730;41.932;25.548;2023-08-17T10:21:50;3.70;;;3.20;;
3433;SDS011;1730;41.932;25.548;2023-08-17T10:24:21;8.30;;;2.70;;
3433;SDS011;1730;41.932;25.548;2023-08-17T10:26:48;5.73;;;3.40;;
3433;SDS011;1730;41.932;25.548;2023-08-17T10:29:15;3.57;;;3.27;;
3433;SDS011;1730;41.932;25.548;2023-08-17T10:31:43;8.23;;;3.00;;
3433;SDS011;1730;41.932;25.548;2023-08-17T10:34:10;5.70;;;3.30;;
3433;SDS011;1730;41.932;25.548;2023-08-17T10:36:36;5.90;;;2.67;;
3433;SDS011;1730;41.932;25.548;2023-08-17T10:39:21;3.70;;;3.20;;
3433;SDS011;1730;41.932;25.548;2023-08-17T10:41:51;8.73;;;2.50;;
3433;SDS011;1730;41.932;25.548;2023-08-17T10:44:18;6.80;;;2.63;;
3433;SDS011;1730;41.932;25.548;2023-08-17T10:49:50;3.10;;;2.77;;
3433;SDS011;1730;41.932;25.548;2023-08-17T10:52:36;3.10;;;2.87;;
3433;SDS011;1730;41.932;25.548;2023-08-17T10:55:06;5.30;;;2.97;;
3433;SDS011;1730;41.932;25.548;2023-08-17T10:57:37;3.53;;;2.70;;
3433;SDS011;1730;41.932;25.548;2023-08-17T11:03:00;3.90;;;2.90;;
3433;SDS011;1730;41.932;25.548;2023-08-17T11:05:46;4.83;;;3.30;;
3433;SDS011;1730;41.932;25.548;2023-08-17T11:08:31;4.50;;;3.33;;
3433;SDS011;1730;41.932;25.548;2023-08-17T11:13:28;3.70;;;2.57;;
3433;SDS011;1730;41.932;25.548;2023-08-17T11:15:57;4.10;;;3.13;;
3433;SDS011;1730;41.932;25.548;2023-08-17T11:18:23;3.60;;;2.97;;
3433;SDS011;1730;41.932;25.548;2023-08-17T11:20:49;3.27;;;2.97;;
3433;SDS011;1730;41.932;25.548;2023-08-17T11:23:15;4.90;;;3.10;;
3433;SDS011;1730;41.932;25.548;2023-08-17T11:25:41;8.50;;;3.00;;
3433;SDS011;1730;41.932;25.548;2023-08-17T11:28:08;4.23;;;3.00;;
3433;SDS011;1730;41.932;25.548;2023-08-17T11:30:34;5.70;;;2.40;;
3433;SDS011;1730;41.932;25.548;2023-08-17T11:33:04;7.93;;;3.07;;
3433;SDS011;1730;41.932;25.548;2023-08-17T11:35:30;8.50;;;3.00;;
3433;SDS011;1730;41.932;25.548;2023-08-17T11:37:56;3.13;;;2.57;;
3433;SDS011;1730;41.932;25.548;2023-08-17T11:40:22;3.50;;;2.63;;
3433;SDS011;1730;41.932;25.548;2023-08-17T11:42:48;3.37;;;2.63;;
3433;SDS011;1730;41.932;25.548;2023-08-17T11:45:15;5.17;;;2.93;;
3433;SDS011;1730;41.932;25.548;2023-08-17T11:47:41;5.40;;;3.03;;
3433;SDS011;1730;41.932;25.548;2023-08-17T11:50:09;6.40;;;5.70;;
3433;SDS011;1730;41.932;25.548;2023-08-17T11:52:38;3.60;;;3.30;;
3433;SDS011;1730;41.932;25.548;2023-08-17T11:55:04;5.13;;;2.60;;
3433;SDS011;1730;41.932;25.548;2023-08-17T11:57:35;10.63;;;3.10;;
3433;SDS011;1730;41.932;25.548;2023-08-17T12:00:01;5.63;;;2.73;;
3433;SDS011;1730;41.932;25.548;2023-08-17T12:02:28;5.47;;;3.20;;
3433;SDS011;1730;41.932;25.548;2023-08-17T12:05:02;4.90;;;2.87;;
3433;SDS011;1730;41.932;25.548;2023-08-17T12:07:31;4.43;;;2.83;;
3433;SDS011;1730;41.932;25.548;2023-08-17T12:09:56;5.50;;;2.93;;
3433;SDS011;1730;41.932;25.548;2023-08-17T12:12:22;3.37;;;3.10;;
3433;SDS011;1730;41.932;25.548;2023-08-17T12:14:47;6.50;;;3.03;;
3433;SDS011;1730;41.932;25.548;2023-08-17T12:17:17;4.13;;;2.60;;
3433;SDS011;1730;41.932;25.548;2023-08-17T12:19:44;6.47;;;2.87;;
3433;SDS011;1730;41.932;25.548;2023-08-17T12:22:13;9.43;;;2.77;;
3433;SDS011;1730;41.932;25.548;2023-08-17T12:24:39;9.43;;;2.97;;
3433;SDS011;1730;41.932;25.548;2023-08-17T12:27:07;6.03;;;2.93;;
3433;SDS011;1730;41.932;25.548;2023-08-17T12:29:33;9.53;;;2.70;;
3433;SDS011;1730;41.932;25.548;2023-08-17T12:32:00;3.10;;;2.63;;
3433;SDS011;1730;41.932;25.548;2023-08-17T12:34:27;5.33;;;2.70;;
3433;SDS011;1730;41.932;25.548;2023-08-17T12:36:52;7.73;;;2.67;;
3433;SDS011;1730;41.932;25.548;2023-08-17T12:39:18;6.93;;;2.50;;
3433;SDS011;1730;41.932;25.548;2023-08-17T12:41:43;2.53;;;2.30;;
3433;SDS011;1730;41.932;25.548;2023-08-17T12:44:09;4.93;;;2.70;;
3433;SDS011;1730;41.932;25.548;2023-08-17T12:46:39;4.80;;;2.47;;
3433;SDS011;1730;41.932;25.548;2023-08-17T12:49:05;5.10;;;2.87;;
3433;SDS011;1730;41.932;25.548;2023-08-17T12:51:30;2.90;;;2.70;;
3433;SDS011;1730;41.932;25.548;2023-08-17T12:53:56;4.43;;;2.80;;
3433;SDS011;1730;41.932;25.548;2023-08-17T12:56:21;3.20;;;2.90;;
3433;SDS011;1730;41.932;25.548;2023-08-17T12:58:47;7.30;;;2.97;;
3433;SDS011;1730;41.932;25.548;2023-08-17T13:01:13;2.90;;;2.60;;
3433;SDS011;1730;41.932;25.548;2023-08-17T13:03:39;3.77;;;3.13;;
3433;SDS011;1730;41.932;25.548;2023-08-17T13:06:04;4.33;;;3.20;;
3433;SDS011;1730;41.932;25.548;2023-08-17T13:08:30;7.30;;;3.47;;
3433;SDS011;1730;41.932;25.548;2023-08-17T13:11:02;7.73;;;3.10;;
3433;SDS011;1730;41.932;25.548;2023-08-17T13:13:33;3.10;;;2.90;;
3433;SDS011;1730;41.932;25.548;2023-08-17T13:15:59;2.70;;;2.50;;
3433;SDS011;1730;41.932;25.548;2023-08-17T13:18:24;5.70;;;3.00;;
3433;SDS011;1730;41.932;25.548;2023-08-17T13:20:50;5.93;;;3.07;;
3433;SDS011;1730;41.932;25.548;2023-08-17T13:23:15;6.20;;;3.10;;
3433;SDS011;1730;41.932;25.548;2023-08-17T13:25:41;6.43;;;3.10;;
3433;SDS011;1730;41.932;25.548;2023-08-17T13:28:06;3.70;;;3.40;;
3433;SDS011;1730;41.932;25.548;2023-08-17T13:30:32;4.47;;;2.77;;
3433;SDS011;1730;41.932;25.548;2023-08-17T13:32:57;3.13;;;2.83;;
3433;SDS011;1730;41.932;25.548;2023-08-17T13:35:23;3.07;;;2.60;;
3433;SDS011;1730;41.932;25.548;2023-08-17T13:37:52;6.70;;;3.00;;
3433;SDS011;1730;41.932;25.548;2023-08-17T13:40:18;4.77;;;2.63;;
3433;SDS011;1730;41.932;25.548;2023-08-17T13:42:44;6.40;;;2.90;;
3433;SDS011;1730;41.932;25.548;2023-08-17T13:45:10;13.03;;;3.30;;
3433;SDS011;1730;41.932;25.548;2023-08-17T13:47:35;8.77;;;3.20;;
3433;SDS011;1730;41.932;25.548;2023-08-17T13:50:01;5.53;;;2.80;;
3433;SDS011;1730;41.932;25.548;2023-08-17T13:52:28;6.90;;;3.30;;
3433;SDS011;1730;41.932;25.548;2023-08-17T13:54:54;4.60;;;3.30;;
3433;SDS011;1730;41.932;25.548;2023-08-17T13:57:21;4.33;;;3.07;;
3433;SDS011;1730;41.932;25.548;2023-08-17T13:59:46;2.93;;;2.70;;
3433;SDS011;1730;41.932;25.548;2023-08-17T14:02:12;4.80;;;3.33;;
3433;SDS011;1730;41.932;25.548;2023-08-17T14:04:37;4.17;;;2.70;;
3433;SDS011;1730;41.932;25.548;2023-08-17T14:07:03;4.50;;;3.30;;
3433;SDS011;1730;41.932;25.548;2023-08-17T14:09:29;3.80;;;3.00;;
3433;SDS011;1730;41.932;25.548;2023-08-17T14:11:55;3.67;;;3.27;;
3433;SDS011;1730;41.932;25.548;2023-08-17T14:14:21;6.40;;;3.03;;
3433;SDS011;1730;41.932;25.548;2023-08-17T14:16:49;6.90;;;3.27;;
3433;SDS011;1730;41.932;25.548;2023-08-17T14:19:14;6.73;;;3.10;;
3433;SDS011;1730;41.932;25.548;2023-08-17T14:21:40;11.43;;;4.23;;
3433;SDS011;1730;41.932;25.548;2023-08-17T14:24:06;3.40;;;3.20;;
3433;SDS011;1730;41.932;25.548;2023-08-17T14:26:33;10.53;;;3.30;;
3433;SDS011;1730;41.932;25.548;2023-08-17T14:28:59;6.13;;;3.20;;
3433;SDS011;1730;41.932;25.548;2023-08-17T14:31:24;5.87;;;2.97;;
3433;SDS011;1730;41.932;25.548;2023-08-17T14:33:50;7.80;;;3.50;;
3433;SDS011;1730;41.932;25.548;2023-08-17T14:36:16;4.63;;;3.57;;
3433;SDS011;1730;41.932;25.548;2023-08-17T14:38:42;7.57;;;3.53;;
3433;SDS011;1730;41.932;25.548;2023-08-17T14:41:07;5.73;;;3.47;;
3433;SDS011;1730;41.932;25.548;2023-08-17T14:43:33;4.03;;;3.73;;
3433;SDS011;1730;41.932;25.548;2023-08-17T14:46:00;6.87;;;4.50;;
3433;SDS011;1730;41.932;25.548;2023-08-17T14:48:26;8.23;;;3.53;;
3433;SDS011;1730;41.932;25.548;2023-08-17T14:50:51;6.23;;;3.27;;
3433;SDS011;1730;41.932;25.548;2023-08-17T14:53:18;6.27;;;4.60;;
3433;SDS011;1730;41.932;25.548;2023-08-17T14:55:43;13.53;;;5.87;;
3433;SDS011;1730;41.932;25.548;2023-08-17T14:58:09;7.23;;;6.53;;
3433;SDS011;1730;41.932;25.548;2023-08-17T15:00:35;8.40;;;6.27;;
3433;SDS011;1730;41.932;25.548;2023-08-17T15:03:00;12.27;;;4.20;;
3433;SDS011;1730;41.932;25.548;2023-08-17T15:05:26;7.97;;;4.20;;
3433;SDS011;1730;41.932;25.548;2023-08-17T15:07:51;3.97;;;3.60;;
3433;SDS011;1730;41.932;25.548;2023-08-17T15:10:17;6.93;;;6.23;;
3433;SDS011;1730;41.932;25.548;2023-08-17T15:12:42;4.53;;;4.00;;